createdAt,value
2022-08-29T00:01:49.310Z,25.90
2022-08-29T00:06:53.018Z,26.00
2022-08-29T00:11:56.795Z,25.90
2022-08-29T00:17:02.280Z,25.90
2022-08-29T00:22:07.362Z,26.00
2022-08-29T00:27:11.038Z,26.00
2022-08-29T00:32:16.216Z,25.90
2022-08-29T00:37:20.094Z,25.90
2022-08-29T00:42:23.974Z,25.90
2022-08-29T00:47:34.928Z,25.90
2022-08-29T00:52:45.131Z,25.90
2022-08-29T00:57:53.920Z,25.90
2022-08-29T01:02:59.399Z,25.90
2022-08-29T01:08:03.681Z,25.90
2022-08-29T01:13:10.288Z,25.90
2022-08-29T01:18:17.379Z,25.80
2022-08-29T01:23:30.074Z,25.80
2022-08-29T01:28:39.662Z,25.90
2022-08-29T01:33:48.118Z,25.90
2022-08-29T01:38:51.933Z,25.80
2022-08-29T01:43:58.205Z,25.90
2022-08-29T01:49:05.242Z,25.80
2022-08-29T01:54:11.807Z,25.80
2022-08-29T01:59:22.189Z,25.80
2022-08-29T02:04:26.273Z,25.80
2022-08-29T02:09:30.739Z,25.80
2022-08-29T02:14:37.245Z,25.80
2022-08-29T02:19:43.648Z,25.80
2022-08-29T02:24:47.264Z,25.80
2022-08-29T02:29:52.710Z,25.80
2022-08-29T02:34:56.364Z,25.80
2022-08-29T02:40:01.619Z,25.80
2022-08-29T02:45:08.032Z,25.70
2022-08-29T02:50:13.436Z,25.70
2022-08-29T02:55:21.942Z,25.80
2022-08-29T03:00:29.625Z,25.80
2022-08-29T03:05:37.226Z,25.70
2022-08-29T03:10:42.397Z,25.70
2022-08-29T03:15:48.208Z,25.70
2022-08-29T03:20:51.800Z,25.70
2022-08-29T03:25:56.464Z,25.70
2022-08-29T03:31:01.477Z,25.70
2022-08-29T03:36:07.026Z,25.70
2022-08-29T03:41:23.812Z,25.70
2022-08-29T03:46:29.633Z,25.70
2022-08-29T03:51:33.351Z,25.70
2022-08-29T03:56:37.323Z,25.70
2022-08-29T04:01:42.590Z,25.70
2022-08-29T04:06:46.433Z,25.70
2022-08-29T04:11:49.938Z,25.60
2022-08-29T04:16:55.341Z,25.60
2022-08-29T04:21:59.355Z,25.60
2022-08-29T04:27:03.476Z,25.60
2022-08-29T04:32:08.686Z,25.60
2022-08-29T04:37:13.278Z,25.60
2022-08-29T04:42:20.187Z,25.60
2022-08-29T04:47:25.360Z,25.50
2022-08-29T04:52:29.386Z,25.50
2022-08-29T04:57:33.475Z,25.50
2022-08-29T05:02:38.808Z,25.50
2022-08-29T05:07:42.893Z,25.50
2022-08-29T05:12:48.365Z,25.50
2022-08-29T05:17:54.363Z,25.50
2022-08-29T05:22:58.203Z,25.50
2022-08-29T05:28:01.861Z,25.50
2022-08-29T05:33:08.064Z,25.50
2022-08-29T05:38:12.385Z,25.50
2022-08-29T05:43:16.395Z,25.40
2022-08-29T05:48:21.375Z,25.50
2022-08-29T05:53:25.846Z,25.50
2022-08-29T05:58:29.421Z,25.40
2022-08-29T06:03:34.542Z,25.40
2022-08-29T06:08:38.437Z,25.40
2022-08-29T06:13:42.121Z,25.40
2022-08-29T06:18:47.968Z,25.40
2022-08-29T06:23:52.195Z,25.40
2022-08-29T06:28:56.167Z,25.40
2022-08-29T06:34:04.861Z,25.40
2022-08-29T06:39:11.720Z,25.40
2022-08-29T06:44:16.028Z,25.40
2022-08-29T06:49:23.004Z,25.40
2022-08-29T06:54:29.797Z,25.40
2022-08-29T06:59:33.614Z,25.30
2022-08-29T07:04:38.630Z,25.30
2022-08-29T07:09:42.343Z,25.30
2022-08-29T07:14:46.044Z,25.40
2022-08-29T07:19:51.095Z,25.40
2022-08-29T07:24:56.892Z,25.30
2022-08-29T07:30:02.629Z,25.30
2022-08-29T07:35:12.843Z,25.30
2022-08-29T07:40:18.300Z,25.40
2022-08-29T07:45:22.527Z,25.40
2022-08-29T07:50:27.573Z,25.40
2022-08-29T07:55:32.579Z,25.40
2022-08-29T08:00:36.453Z,25.40
2022-08-29T08:05:41.697Z,25.40
2022-08-29T08:10:48.918Z,25.30
2022-08-29T08:15:55.540Z,25.30
2022-08-29T08:21:00.643Z,25.30
2022-08-29T08:26:04.527Z,25.30
2022-08-29T08:31:12.269Z,25.40
2022-08-29T08:36:24.315Z,25.40
2022-08-29T08:41:53.734Z,25.50
2022-08-29T08:47:01.669Z,25.50
2022-08-29T08:52:15.736Z,25.40
2022-08-29T08:57:20.729Z,25.40
2022-08-29T09:02:38.172Z,25.40
2022-08-29T09:07:56.379Z,25.40
2022-08-29T09:13:11.543Z,25.40
2022-08-29T09:18:28.979Z,25.40
2022-08-29T09:23:45.105Z,25.40
2022-08-29T09:28:49.653Z,25.40
2022-08-29T09:33:58.212Z,25.50
2022-08-29T09:39:23.590Z,25.40
2022-08-29T09:44:33.804Z,25.40
2022-08-29T09:49:40.050Z,25.40
2022-08-29T09:54:46.136Z,25.40
2022-08-29T10:00:07.535Z,25.40
2022-08-29T10:05:33.876Z,25.40
2022-08-29T10:10:55.660Z,25.50
2022-08-29T10:16:16.169Z,25.40
2022-08-29T10:21:35.529Z,25.50
2022-08-29T10:26:52.568Z,25.50
2022-08-29T10:32:03.861Z,25.50
2022-08-29T10:37:20.148Z,25.50
2022-08-29T10:42:27.753Z,25.50
2022-08-29T10:47:37.884Z,25.50
2022-08-29T10:52:56.822Z,25.50
2022-08-29T10:58:12.317Z,25.50
2022-08-29T11:03:31.981Z,25.50
2022-08-29T11:08:43.056Z,25.50
2022-08-29T11:13:54.398Z,25.50
2022-08-29T11:19:09.466Z,25.50
2022-08-29T11:24:17.196Z,25.60
2022-08-29T11:29:35.765Z,25.60
2022-08-29T11:35:03.974Z,25.60
2022-08-29T11:40:16.440Z,25.60
2022-08-29T11:45:37.247Z,25.60
2022-08-29T11:50:41.425Z,25.70
2022-08-29T11:56:07.177Z,25.70
2022-08-29T12:01:18.853Z,25.70
2022-08-29T12:06:56.882Z,25.70
2022-08-29T12:12:47.491Z,25.70
2022-08-29T12:18:01.961Z,25.80
2022-08-29T12:23:18.547Z,25.80
2022-08-29T12:28:47.174Z,25.80
2022-08-29T12:34:23.963Z,25.80
2022-08-29T12:40:22.467Z,25.80
2022-08-29T12:45:31.800Z,25.80
2022-08-29T12:50:44.225Z,25.80
2022-08-29T12:55:52.427Z,25.80
2022-08-29T13:00:56.557Z,25.80
2022-08-29T13:06:15.543Z,25.80
2022-08-29T13:11:23.886Z,25.80
2022-08-29T13:16:32.886Z,25.80
2022-08-29T13:21:38.185Z,25.80
2022-08-29T13:27:04.764Z,25.90
2022-08-29T13:32:25.127Z,25.90
2022-08-29T13:37:35.557Z,26.00
2022-08-29T13:42:46.584Z,26.00
2022-08-29T13:48:00.969Z,26.00
2022-08-29T13:53:06.064Z,26.00
2022-08-29T13:58:15.208Z,26.00
2022-08-29T14:03:19.876Z,26.00
2022-08-29T14:08:26.101Z,26.00
2022-08-29T14:13:29.757Z,26.00
2022-08-29T14:18:33.980Z,26.10
2022-08-29T14:23:39.118Z,26.10
2022-08-29T14:28:47.940Z,26.20
2022-08-29T14:33:52.431Z,26.20
2022-08-29T14:38:57.650Z,26.20
2022-08-29T14:44:01.566Z,26.30
2022-08-29T14:49:06.675Z,26.20
2022-08-29T14:54:12.462Z,26.30
2022-08-29T14:59:16.204Z,26.30
2022-08-29T15:04:27.468Z,26.20
2022-08-29T15:09:43.949Z,26.20
2022-08-29T15:14:47.789Z,26.30
2022-08-29T15:25:17.490Z,26.30
2022-08-29T15:30:25.691Z,26.40
2022-08-29T15:35:29.649Z,26.50
2022-08-29T15:40:35.152Z,26.60
2022-08-29T15:45:38.956Z,26.60
2022-08-29T15:50:43.094Z,26.60
2022-08-29T15:55:48.264Z,26.60
2022-08-29T16:00:51.946Z,26.70
2022-08-29T16:05:56.065Z,26.70
2022-08-29T16:11:01.586Z,26.50
2022-08-29T16:16:05.693Z,26.40
2022-08-29T16:21:09.822Z,26.40
2022-08-29T16:26:15.129Z,26.40
2022-08-29T16:31:20.620Z,26.30
2022-08-29T16:36:25.017Z,26.40
2022-08-29T16:41:30.998Z,26.30
2022-08-29T16:46:36.044Z,26.40
2022-08-29T16:51:40.541Z,26.40
2022-08-29T16:56:45.671Z,26.30
2022-08-29T17:01:53.524Z,26.30
2022-08-29T17:06:58.122Z,26.30
2022-08-29T17:12:03.565Z,26.30
2022-08-29T17:17:07.885Z,26.30
2022-08-29T17:22:15.787Z,26.30
2022-08-29T17:27:22.716Z,26.20
2022-08-29T17:32:28.532Z,26.20
2022-08-29T17:37:36.156Z,26.20
2022-08-29T17:42:41.516Z,26.20
2022-08-29T17:47:45.415Z,26.20
2022-08-29T17:52:49.090Z,26.20
2022-08-29T17:57:54.143Z,26.20
2022-08-29T18:02:58.371Z,26.20
2022-08-29T18:08:04.155Z,26.20
2022-08-29T18:13:09.369Z,26.20
2022-08-29T18:18:13.039Z,26.20
2022-08-29T18:23:16.854Z,26.10
2022-08-29T18:28:22.057Z,26.10
2022-08-29T18:33:38.833Z,26.10
2022-08-29T18:38:48.418Z,26.10
2022-08-29T18:43:53.784Z,26.10
2022-08-29T18:48:57.721Z,26.10
2022-08-29T18:54:01.575Z,26.10
2022-08-29T18:59:06.615Z,26.10
2022-08-29T19:04:10.169Z,26.10
2022-08-29T19:09:13.842Z,26.00
2022-08-29T19:14:19.188Z,26.10
2022-08-29T19:19:22.836Z,26.00
2022-08-29T19:24:26.605Z,26.10
2022-08-29T19:29:31.660Z,26.00
2022-08-29T19:34:35.513Z,26.00
2022-08-29T19:39:39.268Z,26.00
2022-08-29T19:44:45.027Z,26.00
2022-08-29T19:49:50.215Z,26.00
2022-08-29T19:54:56.089Z,26.00
2022-08-29T20:00:02.424Z,26.00
2022-08-29T20:05:16.823Z,26.00
2022-08-29T20:10:28.937Z,26.00
2022-08-29T20:15:34.564Z,26.00
2022-08-29T20:20:39.376Z,26.00
2022-08-29T20:25:43.248Z,26.00
2022-08-29T20:30:50.766Z,26.00
2022-08-29T20:36:12.361Z,26.00
2022-08-29T20:41:16.583Z,26.00
2022-08-29T20:46:26.610Z,25.90
2022-08-29T20:51:30.275Z,25.90
2022-08-29T20:56:34.166Z,25.90
2022-08-29T21:01:40.378Z,26.00
2022-08-29T21:06:45.009Z,26.00
2022-08-29T21:11:48.622Z,26.00
2022-08-29T21:16:56.863Z,26.00
2022-08-29T21:22:04.122Z,26.00
2022-08-29T21:27:07.915Z,26.00
2022-08-29T21:32:12.963Z,26.00
2022-08-29T21:37:16.682Z,26.00
2022-08-29T21:42:20.579Z,26.00
2022-08-29T21:47:25.910Z,26.00
2022-08-29T21:52:29.562Z,26.00
2022-08-29T21:57:50.780Z,26.00
2022-08-29T22:02:56.417Z,26.00
2022-08-29T22:08:01.144Z,26.00
2022-08-29T22:13:08.657Z,25.90
2022-08-29T22:18:15.315Z,25.90
2022-08-29T22:23:20.310Z,25.90
2022-08-29T22:28:24.633Z,25.90
2022-08-29T22:33:29.640Z,25.90
2022-08-29T22:38:34.078Z,25.90
2022-08-29T22:43:37.891Z,25.90
2022-08-29T22:48:44.582Z,25.80
2022-08-29T22:54:03.847Z,25.80
2022-08-29T22:59:10.295Z,25.80
2022-08-29T23:04:17.719Z,25.80
2022-08-29T23:09:21.609Z,25.80
2022-08-29T23:14:25.525Z,25.80
2022-08-29T23:19:33.095Z,25.80
2022-08-29T23:24:36.816Z,25.80
2022-08-29T23:29:41.819Z,25.80
2022-08-29T23:34:47.221Z,25.80
2022-08-29T23:39:50.959Z,25.80
2022-08-29T23:44:54.750Z,25.80
2022-08-29T23:49:59.844Z,25.80
2022-08-29T23:55:03.798Z,25.80
